Time;durP1;ratioP1;P1;durP2;ratioP2;P2;SDS_P1;SDS_P2;PMS_P1;PMS_P2;Temp;Humidity;BMP_temperature;BMP_pressure;BME280_temperature;BME280_humidity;BME280_pressure;Samples;Min_cycle;Max_cycle;Signal;HPM_P1;HPM_P2
2023/03/20 00:00:34;;;;;;;10.77;10.27;;;;;;;5.22;77.99;93116.91;5070401;28;20255;-76
2023/03/20 00:03:00;;;;;;;11.33;10.43;;;;;;;4.99;79.85;93111.88;5071520;28;20668;-76
2023/03/20 00:05:27;;;;;;;11.27;10.47;;;;;;;4.71;80.91;93081.63;5070935;28;20240;-77
2023/03/20 00:07:53;;;;;;;10.93;10.33;;;;;;;4.73;81.62;93095.09;5071739;28;20189;-77
2023/03/20 00:10:19;;;;;;;9.77;9.17;;;;;;;4.77;82.16;93100.59;5071562;28;20221;-77
2023/03/20 00:12:47;;;;;;;12.07;11.27;;;;;;;4.74;82.30;93098.47;5071105;28;20209;-77
2023/03/20 00:15:24;;;;;;;11.13;10.43;;;;;;;4.93;81.83;93105.81;5071382;28;20288;-77
2023/03/20 00:17:50;;;;;;;11.37;9.67;;;;;;;4.86;82.29;93086.28;5069632;28;20205;-77
2023/03/20 00:20:15;;;;;;;13.03;9.83;;;;;;;4.81;82.46;93105.06;5071502;28;20232;-77
2023/03/20 00:22:41;;;;;;;10.77;10.07;;;;;;;4.65;83.51;93098.03;5071164;28;20193;-76
2023/03/20 00:25:12;;;;;;;10.80;9.87;;;;;;;4.76;82.58;93097.22;5071225;28;20229;-76
2023/03/20 00:27:38;;;;;;;10.47;9.77;;;;;;;4.79;81.02;93083.06;5069663;28;20193;-76
2023/03/20 00:30:17;;;;;;;10.77;10.03;;;;;;;4.80;81.28;93093.16;5070903;28;20240;-76
2023/03/20 00:32:43;;;;;;;11.43;10.53;;;;;;;4.53;82.16;93058.53;5070459;28;20173;-77
2023/03/20 00:35:23;;;;;;;11.30;10.50;;;;;;;5.00;79.68;93091.97;5070510;28;20283;-78
2023/03/20 00:37:50;;;;;;;9.70;8.90;;;;;;;4.86;79.68;93086.28;5071201;28;20216;-76
2023/03/20 00:40:15;;;;;;;11.63;10.70;;;;;;;4.68;80.62;93074.34;5069745;28;20229;-76
2023/03/20 00:42:43;;;;;;;11.73;10.77;;;;;;;4.75;80.23;93074.97;5070871;28;20189;-76
2023/03/20 00:45:15;;;;;;;12.57;11.33;;;;;;;4.83;79.61;93077.19;5070173;28;20237;-75
2023/03/20 00:47:42;;;;;;;11.13;10.43;;;;;;;4.73;80.41;93082.16;5070631;28;20194;-82
2023/03/20 00:50:19;;;;;;;11.57;10.50;;;;;;;4.69;80.91;93081.06;5070261;28;20255;-76
2023/03/20 00:52:45;;;;;;;13.43;12.23;;;;;;;4.52;82.00;93074.25;5069720;28;20173;-77
2023/03/20 00:55:11;;;;;;;10.80;10.10;;;;;;;4.40;81.67;93050.25;5069807;28;20244;-77
2023/03/20 00:57:44;;;;;;;11.97;11.07;;;;;;;4.59;81.20;93087.84;5070625;28;20201;-77
2023/03/20 01:00:29;;;;;;;11.87;10.77;;;;;;;4.53;81.72;93076.63;5069930;28;20244;-77
2023/03/20 01:02:56;;;;;;;11.60;10.90;;;;;;;4.48;82.59;93073.16;5069266;28;20185;-77
2023/03/20 01:05:23;;;;;;;10.43;9.73;;;;;;;4.52;81.57;93067.31;5069952;28;20248;-77
2023/03/20 01:07:48;;;;;;;10.70;9.80;;;;;;;4.58;80.88;93078.50;5070043;28;20204;-77
2023/03/20 01:10:14;;;;;;;10.53;9.90;;;;;;;4.36;80.71;93044.75;5069867;28;20225;-77
2023/03/20 01:12:41;;;;;;;11.37;10.47;;;;;;;4.46;81.14;93060.47;5069714;28;20188;-77
2023/03/20 01:15:22;;;;;;;10.63;9.87;;;;;;;4.41;81.16;93052.63;5069340;28;20224;-77
2023/03/20 01:17:47;;;;;;;10.50;9.80;;;;;;;4.41;81.69;93051.81;5068966;28;20285;-77
2023/03/20 01:20:25;;;;;;;10.77;9.93;;;;;;;4.40;82.16;93056.22;5070302;28;20225;-77
2023/03/20 01:22:51;;;;;;;10.57;9.80;;;;;;;4.36;82.39;93055.09;5069854;28;20252;-77
2023/03/20 01:25:17;;;;;;;10.63;10.00;;;;;;;4.23;82.87;93032.13;5068186;28;20263;-77
2023/03/20 01:27:45;;;;;;;10.30;9.40;;;;;;;4.25;83.18;93042.22;5069781;28;20766;-77
2023/03/20 01:30:22;;;;;;;11.10;10.33;;;;;;;4.16;84.18;93049.53;5069230;28;20221;-77
2023/03/20 01:32:47;;;;;;;10.27;9.47;;;;;;;4.13;84.01;93033.72;5068377;28;21217;-77
2023/03/20 01:35:16;;;;;;;11.63;10.77;;;;;;;4.22;84.61;93058.16;5069615;28;20259;-77
2023/03/20 01:37:43;;;;;;;11.97;10.70;;;;;;;4.19;83.80;93056.84;5069125;28;20209;-77
2023/03/20 01:40:18;;;;;;;11.70;10.60;;;;;;;4.29;82.86;93051.88;5069554;28;20229;-77
2023/03/20 01:42:43;;;;;;;14.47;10.70;;;;;;;4.33;82.44;93060.72;5069314;28;20197;-77
2023/03/20 01:45:16;;;;;;;10.93;10.23;;;;;;;4.23;81.83;93052.81;5069382;28;20252;-77
2023/03/20 01:47:42;;;;;;;12.00;10.73;;;;;;;4.21;82.23;93047.06;5068947;28;20177;-77
2023/03/20 01:50:28;;;;;;;11.57;10.50;;;;;;;4.26;81.97;93062.69;5069121;28;20217;-77
2023/03/20 01:53:09;;;;;;;10.93;10.17;;;;;;;4.21;82.98;93056.59;5069568;28;20200;-77
2023/03/20 01:55:37;;;;;;;11.70;10.77;;;;;;;4.19;82.16;93054.25;5069543;28;20236;-77
2023/03/20 01:58:07;;;;;;;10.97;10.27;;;;;;;4.21;82.65;93061.78;5069060;28;20223;-76
2023/03/20 02:00:34;;;;;;;10.37;9.70;;;;;;;4.17;83.74;93066.59;5069190;28;20289;-77
2023/03/20 02:02:59;;;;;;;11.47;10.57;;;;;;;4.12;83.33;93069.13;5069781;28;20201;-77
2023/03/20 02:05:25;;;;;;;10.87;10.20;;;;;;;4.08;84.49;93062.81;5069210;28;20264;-77
2023/03/20 02:08:20;;;;;;;11.20;10.50;;;;;;;3.93;85.55;93065.09;5067955;28;20195;-77
2023/03/20 02:10:46;;;;;;;11.17;10.47;;;;;;;3.85;85.69;93041.41;5047528;28;20246;-77
2023/03/20 02:13:14;;;;;;;11.90;11.00;;;;;;;3.97;85.84;93060.25;5049086;28;20228;-77
2023/03/20 02:16:01;;;;;;;10.70;10.07;;;;;;;3.97;84.15;93050.69;5047467;28;20221;-77
2023/03/20 02:18:27;;;;;;;11.67;10.97;;;;;;;3.60;84.03;93002.94;5048993;28;20244;-77
2023/03/20 02:21:17;;;;;;;10.40;9.63;;;;;;;3.94;83.65;93050.41;5062396;28;20232;-77
2023/03/20 02:24:16;;;;;;;10.00;9.30;;;;;;;4.02;83.45;93053.41;5069382;28;20189;-77
2023/03/20 02:27:16;;;;;;;11.53;10.73;;;;;;;3.96;84.36;93053.50;5066148;28;20743;-77
2023/03/20 02:29:53;;;;;;;11.83;11.07;;;;;;;3.93;83.80;93044.44;5066414;28;20240;-77
2023/03/20 02:32:40;;;;;;;10.60;9.80;;;;;;;3.78;85.22;93059.63;5069072;28;20196;-77
2023/03/20 02:35:22;;;;;;;10.90;10.20;;;;;;;3.66;84.65;93051.06;5068343;28;20229;-78
2023/03/20 02:38:06;;;;;;;10.70;10.00;;;;;;;3.77;85.13;93065.78;5068571;28;20291;-77
2023/03/20 02:40:50;;;;;;;11.57;10.83;;;;;;;3.78;84.63;93069.94;5067607;28;20229;-78
2023/03/20 02:43:28;;;;;;;10.67;9.87;;;;;;;3.75;85.38;93057.47;5068480;28;20256;-78
2023/03/20 02:45:56;;;;;;;11.17;10.57;;;;;;;3.76;85.74;93053.88;5067495;28;20259;-78
2023/03/20 02:48:27;;;;;;;11.57;10.87;;;;;;;3.77;86.01;93060.63;5068907;28;20193;-78
2023/03/20 02:51:08;;;;;;;12.37;11.47;;;;;;;3.99;84.60;93050.47;5066971;28;20289;-77
2023/03/20 02:53:46;;;;;;;11.73;10.97;;;;;;;3.93;84.75;93047.00;5068620;28;20193;-76
2023/03/20 02:56:20;;;;;;;12.33;11.23;;;;;;;3.69;84.75;93021.47;5067554;28;20307;-78
2023/03/20 02:58:51;;;;;;;14.00;12.83;;;;;;;3.63;85.77;93036.03;5067312;28;20239;-77
2023/03/20 03:01:22;;;;;;;11.50;10.67;;;;;;;3.68;86.00;93043.91;5066590;28;20240;-77
2023/03/20 03:03:59;;;;;;;11.80;10.63;;;;;;;3.64;85.76;93039.41;5065968;28;20197;-77
2023/03/20 03:06:25;;;;;;;11.63;10.63;;;;;;;3.71;85.44;93034.91;5065884;28;20255;-77
2023/03/20 03:08:58;;;;;;;11.83;10.90;;;;;;;3.80;84.85;93031.75;5067940;28;20867;-78
2023/03/20 03:11:24;;;;;;;10.80;9.77;;;;;;;3.59;84.49;93001.38;5067602;28;20239;-78
2023/03/20 03:13:55;;;;;;;12.17;11.17;;;;;;;3.73;85.49;93049.19;5068623;28;20242;-78
2023/03/20 03:16:28;;;;;;;12.50;11.50;;;;;;;3.58;86.13;93030.75;5100479;28;20248;-77
2023/03/20 03:19:07;;;;;;;11.67;10.87;;;;;;;3.54;86.43;93031.44;5068619;28;20189;-79
2023/03/20 03:21:36;;;;;;;10.90;10.27;;;;;;;3.52;85.82;93043.81;5067671;28;20248;-72
2023/03/20 03:24:02;;;;;;;11.20;10.57;;;;;;;3.55;85.76;93020.13;5068748;28;20204;-72
2023/03/20 03:26:32;;;;;;;10.03;9.33;;;;;;;3.66;85.48;93042.56;5069900;28;20232;-73
2023/03/20 03:29:02;;;;;;;10.37;9.67;;;;;;;3.74;84.57;93037.84;5071490;28;20189;-72
2023/03/20 03:31:30;;;;;;;10.70;9.80;;;;;;;3.77;83.87;93039.16;5071264;28;20232;-72
2023/03/20 03:33:58;;;;;;;11.00;10.13;;;;;;;3.79;83.51;93037.16;5071760;28;20201;-72
2023/03/20 03:36:40;;;;;;;10.57;9.97;;;;;;;3.79;83.87;93037.94;5071314;28;20217;-72
2023/03/20 03:39:30;;;;;;;10.17;9.67;;;;;;;3.72;84.19;93039.84;5070661;28;20193;-72
2023/03/20 03:42:16;;;;;;;10.33;9.83;;;;;;;3.70;84.66;93038.50;5071545;28;20236;-72
2023/03/20 03:44:49;;;;;;;10.23;9.73;;;;;;;3.64;85.18;93045.38;5070927;28;20249;-72
2023/03/20 03:47:24;;;;;;;10.23;9.43;;;;;;;3.55;84.93;93033.81;5071518;28;20200;-72
2023/03/20 03:49:57;;;;;;;10.90;10.30;;;;;;;3.59;85.38;93037.50;5070806;28;20300;-72
2023/03/20 03:52:25;;;;;;;10.87;9.90;;;;;;;3.59;85.10;93034.13;5072354;28;20229;-71
2023/03/20 03:54:58;;;;;;;10.70;10.10;;;;;;;3.64;85.08;93040.22;5070916;28;20240;-72
2023/03/20 03:57:30;;;;;;;9.73;9.13;;;;;;;3.57;86.40;93036.94;5071168;28;20300;-72
2023/03/20 03:59:57;;;;;;;10.47;9.93;;;;;;;3.33;85.70;93001.06;5070858;28;20236;-72
2023/03/20 04:02:23;;;;;;;10.70;9.20;;;;;;;3.56;85.13;93019.91;5071521;28;20185;-73
2023/03/20 04:04:52;;;;;;;9.47;8.87;;;;;;;3.46;86.05;93018.88;5102452;28;20274;-72
2023/03/20 04:07:18;;;;;;;11.20;10.30;;;;;;;3.53;86.04;93033.25;5070888;28;20211;-71
2023/03/20 04:09:44;;;;;;;10.87;10.27;;;;;;;3.51;84.57;93024.94;5071070;28;20276;-73
2023/03/20 04:12:32;;;;;;;10.33;9.57;;;;;;;3.59;83.46;93032.34;5071722;28;20216;-73
2023/03/20 04:14:58;;;;;;;10.40;9.67;;;;;;;3.48;84.21;93025.41;5070013;28;20240;-72
2023/03/20 04:17:23;;;;;;;10.13;9.40;;;;;;;3.49;83.40;93024.38;5070774;28;20217;-72
2023/03/20 04:19:48;;;;;;;10.63;10.03;;;;;;;3.60;83.44;93023.59;5071192;28;20225;-72
2023/03/20 04:22:14;;;;;;;10.23;9.73;;;;;;;3.45;84.28;93007.78;5071414;28;20197;-72
2023/03/20 04:24:39;;;;;;;9.80;9.10;;;;;;;3.55;84.84;93025.28;5071145;28;20220;-72
2023/03/20 04:27:05;;;;;;;10.93;10.23;;;;;;;3.52;85.55;93025.75;5070452;28;20247;-72
2023/03/20 04:29:30;;;;;;;9.60;9.10;;;;;;;3.63;84.36;93024.94;5070842;28;20233;-72
2023/03/20 04:31:55;;;;;;;10.30;9.47;;;;;;;3.77;83.61;93014.13;5103703;28;20193;-72
2023/03/20 04:34:21;;;;;;;11.37;10.50;;;;;;;3.77;83.82;93013.34;5070442;28;20260;-72
2023/03/20 04:36:47;;;;;;;10.67;9.97;;;;;;;3.64;84.17;93016.97;5070520;28;20240;-72
2023/03/20 04:39:13;;;;;;;11.70;10.93;;;;;;;3.59;84.51;93011.72;5070514;28;20209;-73
2023/03/20 04:41:38;;;;;;;11.67;10.97;;;;;;;3.78;84.28;93014.94;5070896;28;20185;-72
2023/03/20 04:44:04;;;;;;;10.40;9.70;;;;;;;3.82;82.69;93011.66;5070624;28;20268;-73
2023/03/20 04:46:29;;;;;;;11.40;10.60;;;;;;;3.94;82.02;93019.41;5070154;28;20221;-72
2023/03/20 04:48:54;;;;;;;10.80;10.20;;;;;;;4.03;80.63;93018.78;5071026;28;20205;-72
2023/03/20 04:51:20;;;;;;;10.80;10.20;;;;;;;4.02;80.26;93013.84;5068992;28;20316;-72
2023/03/20 04:53:46;;;;;;;11.40;10.60;;;;;;;4.28;80.50;93047.69;5069432;28;20284;-74
2023/03/20 04:56:12;;;;;;;12.87;11.93;;;;;;;4.47;79.72;93051.69;5067462;28;20233;-71
2023/03/20 04:58:37;;;;;;;10.73;10.23;;;;;;;4.62;79.46;93053.78;5066628;28;20259;-71
2023/03/20 05:01:02;;;;;;;11.33;10.60;;;;;;;4.68;79.43;93045.91;5068184;28;20255;-73
2023/03/20 05:03:28;;;;;;;11.67;11.00;;;;;;;4.90;78.39;93064.88;5068325;28;20204;-70
2023/03/20 05:05:53;;;;;;;11.50;10.50;;;;;;;4.93;78.27;93056.66;5066965;28;20294;-68
2023/03/20 05:08:19;;;;;;;12.10;11.27;;;;;;;5.05;77.33;93064.38;5068635;28;20206;-68
2023/03/20 05:10:44;;;;;;;12.33;11.53;;;;;;;5.09;78.14;93059.50;5068257;28;20252;-69
2023/03/20 05:13:10;;;;;;;11.60;10.57;;;;;;;5.11;78.76;93063.44;5068787;28;20272;-70
2023/03/20 05:15:36;;;;;;;11.50;10.80;;;;;;;4.68;79.23;92994.19;5066262;28;20304;-70
2023/03/20 05:18:02;;;;;;;11.43;10.53;;;;;;;5.18;78.97;93053.72;5067767;28;20224;-72
2023/03/20 05:20:28;;;;;;;10.97;10.33;;;;;;;5.19;79.06;93042.34;5067849;28;20233;-72
2023/03/20 05:22:53;;;;;;;11.00;10.33;;;;;;;5.41;78.20;93058.75;5068108;28;20209;-69
2023/03/20 05:25:19;;;;;;;11.47;10.53;;;;;;;5.50;77.66;93046.97;5068080;28;20260;-69
2023/03/20 05:27:45;;;;;;;13.00;11.83;;;;;;;5.62;77.77;93058.00;5067972;28;20472;-69
2023/03/20 05:30:11;;;;;;;13.67;12.57;;;;;;;5.86;77.30;93074.97;5065873;28;20241;-72
2023/03/20 05:32:37;;;;;;;14.27;12.97;;;;;;;6.08;75.93;93085.38;5067068;28;20257;-69
2023/03/20 05:35:03;;;;;;;15.53;13.93;;;;;;;6.27;74.79;93078.88;5067867;28;20244;-70
2023/03/20 05:37:29;;;;;;;18.70;14.17;;;;;;;6.36;75.38;93072.25;5068306;28;21038;-72
2023/03/20 05:39:54;;;;;;;19.33;15.83;;;;;;;6.53;75.86;93078.16;5068692;28;20269;-74
2023/03/20 05:42:20;;;;;;;23.23;16.10;;;;;;;6.61;74.28;93069.97;5067338;28;20181;-73
2023/03/20 05:44:45;;;;;;;17.23;15.50;;;;;;;6.76;73.67;93072.69;5067130;28;20237;-72
2023/03/20 05:47:11;;;;;;;21.20;17.23;;;;;;;6.99;72.20;93075.00;5067805;28;20205;-72
2023/03/20 05:49:36;;;;;;;18.47;16.47;;;;;;;7.05;72.16;93081.81;5065235;28;20267;-73
2023/03/20 05:52:01;;;;;;;19.93;16.47;;;;;;;7.07;72.73;93063.41;5066494;28;20241;-73
2023/03/20 05:54:27;;;;;;;20.73;15.73;;;;;;;7.34;70.62;93087.53;5067580;28;20193;-73
2023/03/20 05:56:52;;;;;;;21.00;17.40;;;;;;;7.52;69.95;93087.16;5067500;28;20205;-73
2023/03/20 05:59:18;;;;;;;22.70;16.17;;;;;;;7.66;68.36;93076.13;5066776;28;20261;-73
2023/03/20 06:01:43;;;;;;;18.93;16.43;;;;;;;7.66;69.29;93089.09;5066802;28;20215;-73
2023/03/20 06:04:08;;;;;;;18.30;16.40;;;;;;;7.63;69.37;93074.00;5067426;28;20182;-75
2023/03/20 06:06:36;;;;;;;18.73;16.77;;;;;;;7.98;68.43;93084.63;5067460;28;20221;-74
2023/03/20 06:09:03;;;;;;;17.13;15.23;;;;;;;8.15;67.54;93081.91;5066901;28;20220;-74
2023/03/20 06:11:28;;;;;;;17.87;16.00;;;;;;;7.87;67.46;93083.03;5066500;28;20216;-74
2023/03/20 06:13:54;;;;;;;17.70;15.87;;;;;;;8.22;66.98;93068.69;5067075;28;20197;-74
2023/03/20 06:16:20;;;;;;;18.93;15.37;;;;;;;8.43;66.23;93062.56;5066312;28;20215;-73
2023/03/20 06:18:46;;;;;;;18.43;15.90;;;;;;;8.64;65.63;93080.59;5068664;28;20209;-74
2023/03/20 06:21:11;;;;;;;20.93;17.77;;;;;;;8.30;67.02;93055.19;5065492;28;20243;-74
2023/03/20 06:23:37;;;;;;;21.30;16.77;;;;;;;8.71;66.11;93085.56;5068415;28;20197;-73
2023/03/20 06:26:03;;;;;;;20.40;16.70;;;;;;;8.71;67.10;93085.56;5066810;28;20250;-74
2023/03/20 06:28:29;;;;;;;17.60;15.63;;;;;;;8.61;66.81;93096.72;5068218;28;20193;-74
2023/03/20 06:30:54;;;;;;;17.20;15.57;;;;;;;8.57;66.60;93081.88;5066150;28;20247;-74
2023/03/20 06:33:20;;;;;;;16.00;14.30;;;;;;;8.35;66.97;93094.25;5067655;28;20189;-74
2023/03/20 06:35:47;;;;;;;18.73;14.60;;;;;;;8.57;67.88;93090.47;5065647;28;20228;-74
2023/03/20 06:38:12;;;;;;;19.27;15.07;;;;;;;8.76;67.73;93093.41;5067838;28;20221;-74
2023/03/20 06:40:38;;;;;;;25.43;16.53;;;;;;;8.72;68.00;93080.09;5067473;28;20244;-74
2023/03/20 06:43:04;;;;;;;18.70;16.80;;;;;;;8.89;67.19;93085.88;5067439;28;20205;-73
2023/03/20 06:45:29;;;;;;;19.00;16.97;;;;;;;8.93;66.62;93086.16;5067287;28;20229;-74
2023/03/20 06:47:55;;;;;;;22.60;16.53;;;;;;;8.75;68.29;93094.41;5067958;28;20200;-73
2023/03/20 06:50:20;;;;;;;22.50;18.27;;;;;;;8.56;69.28;93093.31;5067357;28;20227;-74
2023/03/20 06:52:46;;;;;;;26.67;18.57;;;;;;;8.94;68.03;93098.91;5066989;28;20196;-76
2023/03/20 06:55:11;;;;;;;25.80;18.43;;;;;;;8.81;67.40;93081.16;5067254;28;20236;-80
2023/03/20 06:57:37;;;;;;;30.80;17.80;;;;;;;8.95;67.44;93087.47;5067241;28;20224;-76
2023/03/20 07:00:04;;;;;;;23.47;17.30;;;;;;;9.28;66.29;93094.84;5068509;28;21037;-70
2023/03/20 07:02:30;;;;;;;19.33;15.87;;;;;;;9.26;65.64;93077.91;5070895;28;20252;-69
2023/03/20 07:04:55;;;;;;;21.17;16.10;;;;;;;9.58;65.08;93092.25;5068551;28;20241;-69
2023/03/20 07:07:20;;;;;;;17.33;15.53;;;;;;;9.77;63.26;93084.72;5069756;28;20221;-70
2023/03/20 07:09:46;;;;;;;19.43;16.10;;;;;;;9.66;63.69;93078.69;5070146;28;20246;-71
2023/03/20 07:12:13;;;;;;;18.53;16.73;;;;;;;9.93;62.94;93073.19;5070764;28;20185;-69
2023/03/20 07:14:42;;;;;;;26.57;15.87;;;;;;;9.84;63.13;93080.00;5071059;28;20266;-71
2023/03/20 07:17:09;;;;;;;17.77;15.67;;;;;;;10.03;62.81;93088.84;5070584;28;20267;-70
2023/03/20 07:19:37;;;;;;;17.77;15.43;;;;;;;10.17;61.89;93089.91;5069768;28;20292;-68
2023/03/20 07:22:06;;;;;;;21.47;16.57;;;;;;;9.93;62.20;93083.63;5070856;28;20197;-69
2023/03/20 07:24:32;;;;;;;19.53;17.07;;;;;;;10.10;62.76;93086.00;5071075;28;20260;-70
2023/03/20 07:26:58;;;;;;;22.47;16.33;;;;;;;9.66;63.31;93085.75;5070005;28;20206;-70
2023/03/20 07:29:24;;;;;;;21.30;16.63;;;;;;;9.92;63.31;93082.06;5069891;28;20197;-70
2023/03/20 07:31:49;;;;;;;24.60;18.00;;;;;;;10.45;60.52;93084.09;5066805;28;20197;-70
2023/03/20 07:34:15;;;;;;;25.17;18.60;;;;;;;10.27;60.00;93044.75;5069193;28;20213;-67
2023/03/20 07:36:41;;;;;;;25.30;18.90;;;;;;;10.60;59.98;93086.66;5071134;28;20200;-71
2023/03/20 07:39:08;;;;;;;31.03;19.20;;;;;;;10.50;59.97;93057.97;5070263;28;20191;-73
2023/03/20 07:41:34;;;;;;;23.80;19.03;;;;;;;10.72;60.12;93089.72;5069784;28;20242;-72
2023/03/20 07:44:00;;;;;;;32.57;19.33;;;;;;;10.57;59.21;93084.56;5068855;28;20190;-73
2023/03/20 07:46:25;;;;;;;29.37;18.50;;;;;;;10.84;58.53;93092.06;5070609;28;20252;-69
2023/03/20 07:48:51;;;;;;;24.13;16.63;;;;;;;10.81;59.08;93089.97;5070238;28;20193;-71
2023/03/20 07:51:17;;;;;;;22.00;16.47;;;;;;;10.78;59.97;93095.72;5070940;28;20329;-70
2023/03/20 07:53:42;;;;;;;21.03;18.20;;;;;;;10.62;60.11;93092.41;5070885;28;20648;-73
2023/03/20 07:56:08;;;;;;;19.80;17.70;;;;;;;11.09;58.55;93103.19;5069751;28;20229;-71
2023/03/20 07:58:33;;;;;;;18.50;16.67;;;;;;;10.91;58.77;93080.25;5069059;28;20217;-71
2023/03/20 08:00:59;;;;;;;16.53;14.80;;;;;;;10.49;58.63;93102.63;5068430;28;20237;-70
2023/03/20 08:03:25;;;;;;;20.97;16.27;;;;;;;10.31;61.73;93090.91;5069861;28;20208;-71
2023/03/20 08:05:50;;;;;;;15.13;13.83;;;;;;;10.62;59.03;93100.22;5070906;28;20250;-72
2023/03/20 08:08:15;;;;;;;27.40;15.80;;;;;;;10.87;57.76;93102.75;5070073;28;20182;-71
2023/03/20 08:10:41;;;;;;;19.30;16.10;;;;;;;10.65;59.44;93094.47;5069873;28;20228;-71
2023/03/20 08:13:06;;;;;;;18.07;13.50;;;;;;;10.90;58.75;93096.19;5070920;28;20209;-71
2023/03/20 08:15:31;;;;;;;15.07;13.53;;;;;;;10.94;58.25;93074.50;5070261;28;20313;-71
2023/03/20 08:17:57;;;;;;;19.00;14.37;;;;;;;10.85;58.82;93099.63;5070309;28;20232;-71
2023/03/20 08:20:23;;;;;;;15.97;14.30;;;;;;;11.24;56.71;93103.09;5070196;28;20223;-71
2023/03/20 08:22:49;;;;;;;18.03;14.40;;;;;;;11.33;57.22;93103.31;5070139;28;20203;-71
2023/03/20 08:25:15;;;;;;;15.83;14.13;;;;;;;11.08;58.55;93104.22;5071033;28;20237;-71
2023/03/20 08:27:40;;;;;;;16.97;15.07;;;;;;;10.89;59.25;93099.88;5070484;28;20190;-71
2023/03/20 08:30:08;;;;;;;16.57;14.80;;;;;;;10.78;59.30;93104.38;5070752;28;20218;-72
2023/03/20 08:32:35;;;;;;;25.40;15.43;;;;;;;11.44;57.15;93111.88;5070579;28;20195;-70
2023/03/20 08:35:00;;;;;;;15.43;13.93;;;;;;;11.68;55.05;93110.16;5063380;28;20238;-71
2023/03/20 08:37:27;;;;;;;19.67;15.07;;;;;;;11.44;55.72;93109.25;5049038;28;20206;-71
2023/03/20 08:39:52;;;;;;;18.30;16.17;;;;;;;11.51;56.35;93114.94;5055880;28;20233;-70
2023/03/20 08:42:18;;;;;;;17.23;14.30;;;;;;;11.47;57.04;93103.50;5068712;28;20229;-70
2023/03/20 08:44:44;;;;;;;18.27;16.20;;;;;;;11.21;57.30;93108.06;5069450;28;20235;-70
2023/03/20 08:47:10;;;;;;;16.50;14.87;;;;;;;11.63;56.55;93113.59;5069953;28;20247;-73
2023/03/20 08:49:36;;;;;;;18.47;15.70;;;;;;;11.66;55.17;93097.34;5069200;28;20237;-72
2023/03/20 08:52:01;;;;;;;18.07;16.03;;;;;;;11.54;57.21;93093.50;5070207;28;20182;-72
2023/03/20 08:54:27;;;;;;;18.73;16.80;;;;;;;11.79;55.00;93106.41;5070736;28;20181;-72
2023/03/20 08:56:52;;;;;;;23.90;17.17;;;;;;;11.68;55.27;93084.00;5068947;28;20227;-72
2023/03/20 08:59:18;;;;;;;23.17;16.03;;;;;;;12.09;55.21;93082.63;5068668;28;20177;-72
2023/03/20 09:01:44;;;;;;;17.80;15.80;;;;;;;12.14;54.78;93101.66;5069999;28;20218;-72
2023/03/20 09:04:12;;;;;;;18.67;16.83;;;;;;;11.97;54.70;93092.69;5069846;28;20241;-72
2023/03/20 09:06:37;;;;;;;16.50;14.80;;;;;;;11.93;55.00;93091.66;5069766;28;20214;-72
2023/03/20 09:09:03;;;;;;;20.03;14.63;;;;;;;12.33;54.02;93099.13;5070107;28;20212;-73
2023/03/20 09:11:29;;;;;;;17.83;14.97;;;;;;;12.16;55.79;93091.72;5068720;28;20236;-72
2023/03/20 09:13:54;;;;;;;23.03;16.50;;;;;;;11.95;54.86;93084.31;5070168;28;20204;-72
2023/03/20 09:16:20;;;;;;;16.40;14.63;;;;;;;11.79;56.39;93091.50;5069567;28;20216;-72
2023/03/20 09:18:45;;;;;;;19.63;14.90;;;;;;;12.20;54.02;93081.47;5069863;28;20213;-72
2023/03/20 09:21:10;;;;;;;18.27;14.40;;;;;;;12.42;53.62;93089.66;5069516;28;20216;-72
2023/03/20 09:23:36;;;;;;;19.90;16.73;;;;;;;12.58;53.96;93076.09;5069268;28;20253;-69
2023/03/20 09:26:01;;;;;;;25.43;16.47;;;;;;;12.75;52.80;93079.06;5068972;28;20263;-71
2023/03/20 09:28:27;;;;;;;20.37;16.23;;;;;;;12.52;53.58;93073.81;5069738;28;20193;-72
2023/03/20 09:30:57;;;;;;;18.13;15.93;;;;;;;12.70;52.33;93075.72;5068196;28;20244;-72
2023/03/20 09:33:23;;;;;;;16.73;14.87;;;;;;;12.64;52.59;93071.56;5069807;28;20182;-71
2023/03/20 09:35:48;;;;;;;18.37;15.63;;;;;;;12.45;54.49;93076.75;5055450;28;20229;-71
2023/03/20 09:38:14;;;;;;;27.90;16.23;;;;;;;12.69;54.16;93074.16;5050121;28;20272;-71
2023/03/20 09:40:53;;;;;;;20.03;14.70;;;;;;;13.15;53.58;93077.81;5059428;28;20799;-71
2023/03/20 09:43:27;;;;;;;18.17;15.80;;;;;;;13.42;51.49;93071.91;5069257;28;20193;-71
2023/03/20 09:46:12;;;;;;;21.43;15.67;;;;;;;13.41;52.10;93071.16;5068448;28;20297;-71
2023/03/20 09:48:45;;;;;;;21.60;15.57;;;;;;;13.45;52.32;93060.88;5068174;28;20207;-71
2023/03/20 09:51:37;;;;;;;18.70;16.57;;;;;;;13.43;50.93;93058.53;5069125;28;20305;-70
2023/03/20 09:54:13;;;;;;;20.10;17.40;;;;;;;13.38;52.11;93044.72;5063945;28;20207;-71
2023/03/20 09:56:39;;;;;;;21.07;16.47;;;;;;;13.62;50.33;93043.56;5068650;28;20243;-70
2023/03/20 09:59:06;;;;;;;25.40;16.50;;;;;;;13.54;51.31;93028.47;5069733;28;20189;-71
2023/03/20 10:01:44;;;;;;;21.30;16.83;;;;;;;13.65;50.49;93035.09;5099689;28;20224;-70
2023/03/20 10:04:10;;;;;;;25.77;16.47;;;;;;;13.77;51.72;93030.22;5068453;28;21062;-70
2023/03/20 10:06:36;;;;;;;21.07;17.77;;;;;;;14.05;49.68;93008.22;5069044;28;20193;-70
2023/03/20 10:09:13;;;;;;;21.20;17.23;;;;;;;14.25;48.69;93023.63;5068598;28;20953;-71
2023/03/20 10:12:23;;;;;;;20.27;18.07;;;;;;;14.27;48.93;93015.47;5068544;28;20227;-70
2023/03/20 10:14:48;;;;;;;22.60;17.00;;;;;;;14.27;49.66;93010.97;5068954;28;20229;-70
2023/03/20 10:17:20;;;;;;;19.37;16.83;;;;;;;14.48;48.96;93006.91;5068066;28;20232;-70
2023/03/20 10:20:01;;;;;;;28.23;17.40;;;;;;;14.55;48.10;93005.75;5068248;28;20221;-69
2023/03/20 10:22:35;;;;;;;20.23;17.27;;;;;;;14.40;48.75;93007.59;5067985;28;20170;-70
2023/03/20 10:25:13;;;;;;;24.87;17.40;;;;;;;14.66;48.36;93010.53;5068775;28;20287;-69
2023/03/20 10:27:42;;;;;;;26.07;16.10;;;;;;;14.81;47.76;93009.41;5067924;28;20177;-70
2023/03/20 10:30:52;;;;;;;22.17;16.47;;;;;;;14.65;47.19;93003.69;5068122;28;20255;-70
2023/03/20 10:33:27;;;;;;;24.07;15.87;;;;;;;14.74;47.81;93003.78;5059355;28;20201;-70
2023/03/20 10:36:04;;;;;;;21.53;16.60;;;;;;;14.89;47.63;93003.47;5068285;28;20229;-70
2023/03/20 10:38:48;;;;;;;21.50;17.57;;;;;;;14.69;47.45;92999.41;5068039;28;20235;-70
2023/03/20 10:41:20;;;;;;;26.23;18.57;;;;;;;14.84;47.23;92988.59;5063395;28;20225;-70
2023/03/20 10:43:48;;;;;;;23.00;16.37;;;;;;;14.62;46.76;92996.41;5063878;28;20207;-71
2023/03/20 10:46:28;;;;;;;32.00;18.40;;;;;;;14.75;46.77;92984.31;5064533;28;20221;-68
2023/03/20 10:49:24;;;;;;;21.93;17.63;;;;;;;15.10;46.61;92986.19;5066715;28;20247;-69
2023/03/20 10:52:04;;;;;;;22.80;17.90;;;;;;;15.43;46.66;92984.94;5064040;28;20291;-70
2023/03/20 10:54:33;;;;;;;26.37;16.63;;;;;;;15.55;44.97;92979.91;5066640;28;20223;-69
2023/03/20 10:57:01;;;;;;;26.10;18.40;;;;;;;15.27;45.64;92976.59;5063716;28;20279;-70
2023/03/20 10:59:32;;;;;;;22.63;17.00;;;;;;;15.51;45.48;92979.75;5064593;28;20201;-70
2023/03/20 11:01:58;;;;;;;25.50;16.33;;;;;;;15.27;44.89;92970.56;5067388;28;20208;-69
2023/03/20 11:04:23;;;;;;;22.87;15.17;;;;;;;15.52;43.44;92972.63;5066760;28;20197;-70
2023/03/20 11:07:17;;;;;;;28.13;17.20;;;;;;;15.52;43.37;92962.88;5068190;28;20228;-70
2023/03/20 11:09:42;;;;;;;22.23;16.37;;;;;;;15.38;45.47;92958.75;5066482;28;20225;-70
2023/03/20 11:12:19;;;;;;;19.33;16.40;;;;;;;15.79;43.44;92961.97;5067887;28;20211;-69
2023/03/20 11:14:44;;;;;;;20.70;14.77;;;;;;;15.69;43.25;92957.72;5066904;28;20237;-70
2023/03/20 11:17:11;;;;;;;19.63;16.13;;;;;;;15.79;43.08;92938.28;5066205;28;20236;-70
2023/03/20 11:19:38;;;;;;;20.73;15.30;;;;;;;15.81;43.25;92949.28;5067124;28;20233;-70
2023/03/20 11:22:21;;;;;;;23.03;17.37;;;;;;;15.74;43.67;92933.13;5066382;28;20261;-70
2023/03/20 11:24:57;;;;;;;24.73;17.07;;;;;;;15.38;43.27;92891.13;5067385;28;20225;-70
2023/03/20 11:27:34;;;;;;;22.20;16.47;;;;;;;15.76;44.76;92937.03;5067016;28;20177;-70
2023/03/20 11:30:03;;;;;;;21.93;16.20;;;;;;;15.85;43.37;92942.31;5058462;28;20234;-70
2023/03/20 11:32:40;;;;;;;19.87;15.43;;;;;;;15.85;44.51;92929.16;5046129;28;20174;-71
2023/03/20 11:35:18;;;;;;;23.40;16.30;;;;;;;15.87;44.82;92921.75;5053921;28;20271;-78